sensor_id;sensor_type;location;lat;lon;timestamp;pressure;altitude;pressure_sealevel;temperature
70417;BMP280;57839;51.332;12.410;2024-01-30T00:01:52;101670.50;;;7.43
70417;BMP280;57839;51.332;12.410;2024-01-30T00:04:17;101670.81;;;7.41
70417;BMP280;57839;51.332;12.410;2024-01-30T00:06:45;101669.22;;;7.40
70417;BMP280;57839;51.332;12.410;2024-01-30T00:09:11;101672.97;;;7.39
70417;BMP280;57839;51.332;12.410;2024-01-30T00:11:37;101664.78;;;7.36
70417;BMP280;57839;51.332;12.410;2024-01-30T00:14:03;101665.91;;;7.35
70417;BMP280;57839;51.332;12.410;2024-01-30T00:16:29;101666.78;;;7.30
70417;BMP280;57839;51.332;12.410;2024-01-30T00:18:54;101664.63;;;7.32
70417;BMP280;57839;51.332;12.410;2024-01-30T00:21:21;101671.34;;;7.30
70417;BMP280;57839;51.332;12.410;2024-01-30T00:23:46;101660.53;;;7.26
70417;BMP280;57839;51.332;12.410;2024-01-30T00:26:12;101665.06;;;7.26
70417;BMP280;57839;51.332;12.410;2024-01-30T00:28:38;101663.47;;;7.25
70417;BMP280;57839;51.332;12.410;2024-01-30T00:31:04;101663.47;;;7.25
70417;BMP280;57839;51.332;12.410;2024-01-30T00:33:29;101662.69;;;7.24
70417;BMP280;57839;51.332;12.410;2024-01-30T00:35:55;101657.94;;;7.21
70417;BMP280;57839;51.332;12.410;2024-01-30T00:38:21;101665.47;;;7.19
70417;BMP280;57839;51.332;12.410;2024-01-30T00:40:46;101665.78;;;7.18
70417;BMP280;57839;51.332;12.410;2024-01-30T00:43:12;101656.38;;;7.20
70417;BMP280;57839;51.332;12.410;2024-01-30T00:45:37;101651.03;;;7.20
70417;BMP280;57839;51.332;12.410;2024-01-30T00:48:03;101654.78;;;7.19
70417;BMP280;57839;51.332;12.410;2024-01-30T00:50:29;101646.31;;;7.17
70417;BMP280;57839;51.332;12.410;2024-01-30T00:52:54;101651.34;;;7.19
70417;BMP280;57839;51.332;12.410;2024-01-30T00:55:20;101652.44;;;7.18
70417;BMP280;57839;51.332;12.410;2024-01-30T00:57:46;101658.41;;;7.15
70417;BMP280;57839;51.332;12.410;2024-01-30T01:00:13;101652.28;;;7.14
70417;BMP280;57839;51.332;12.410;2024-01-30T01:02:41;101651.78;;;7.12
70417;BMP280;57839;51.332;12.410;2024-01-30T01:05:06;101652.09;;;7.11
70417;BMP280;57839;51.332;12.410;2024-01-30T01:07:32;101651.59;;;7.09
70417;BMP280;57839;51.332;12.410;2024-01-30T01:09:58;101650.00;;;7.08
70417;BMP280;57839;51.332;12.410;2024-01-30T01:12:23;101649.22;;;7.07
70417;BMP280;57839;51.332;12.410;2024-01-30T01:14:49;101653.28;;;7.05
70417;BMP280;57839;51.332;12.410;2024-01-30T01:17:14;101645.91;;;7.02
70417;BMP280;57839;51.332;12.410;2024-01-30T01:19:40;101640.56;;;7.02
70417;BMP280;57839;51.332;12.410;2024-01-30T01:22:05;101637.41;;;7.00
70417;BMP280;57839;51.332;12.410;2024-01-30T01:24:31;101637.91;;;7.02
70417;BMP280;57839;51.332;12.410;2024-01-30T01:26:58;101636.31;;;7.01
70417;BMP280;57839;51.332;12.410;2024-01-30T01:29:24;101632.84;;;7.00
70417;BMP280;57839;51.332;12.410;2024-01-30T01:31:56;101637.09;;;7.01
70417;BMP280;57839;51.332;12.410;2024-01-30T01:34:22;101631.13;;;7.04
70417;BMP280;57839;51.332;12.410;2024-01-30T01:36:48;101633.53;;;7.06
70417;BMP280;57839;51.332;12.410;2024-01-30T01:39:14;101627.88;;;7.07
70417;BMP280;57839;51.332;12.410;2024-01-30T01:41:40;101630.53;;;7.07
70417;BMP280;57839;51.332;12.410;2024-01-30T01:44:05;101629.75;;;7.07
70417;BMP280;57839;51.332;12.410;2024-01-30T01:46:33;101628.34;;;7.09
70417;BMP280;57839;51.332;12.410;2024-01-30T01:49:00;101622.25;;;7.09
70417;BMP280;57839;51.332;12.410;2024-01-30T01:51:27;101618.78;;;7.08
70417;BMP280;57839;51.332;12.410;2024-01-30T01:53:54;101623.53;;;7.11
70417;BMP280;57839;51.332;12.410;2024-01-30T01:56:20;101626.97;;;7.12
70417;BMP280;57839;51.332;12.410;2024-01-30T01:58:47;101624.31;;;7.12
70417;BMP280;57839;51.332;12.410;2024-01-30T02:01:14;101620.06;;;7.11
70417;BMP280;57839;51.332;12.410;2024-01-30T02:03:41;101621.94;;;7.10
70417;BMP280;57839;51.332;12.410;2024-01-30T02:06:07;101621.94;;;7.10
70417;BMP280;57839;51.332;12.410;2024-01-30T02:08:32;101620.66;;;7.08
70417;BMP280;57839;51.332;12.410;2024-01-30T02:10:59;101627.88;;;7.07
70417;BMP280;57839;51.332;12.410;2024-01-30T02:13:25;101623.13;;;7.04
70417;BMP280;57839;51.332;12.410;2024-01-30T02:15:53;101613.56;;;7.03
70417;BMP280;57839;51.332;12.410;2024-01-30T02:18:19;101620.81;;;7.03
70417;BMP280;57839;51.332;12.410;2024-01-30T02:20:48;101621.69;;;6.98
70417;BMP280;57839;51.332;12.410;2024-01-30T02:23:15;101614.75;;;6.97
70417;BMP280;57839;51.332;12.410;2024-01-30T02:25:42;101620.09;;;6.97
70417;BMP280;57839;51.332;12.410;2024-01-30T02:28:13;101625.75;;;6.96
70417;BMP280;57839;51.332;12.410;2024-01-30T02:30:39;101617.25;;;6.94
70417;BMP280;57839;51.332;12.410;2024-01-30T02:33:05;101619.41;;;6.92
70417;BMP280;57839;51.332;12.410;2024-01-30T02:35:31;101620.84;;;6.89
70417;BMP280;57839;51.332;12.410;2024-01-30T02:38:02;101623.31;;;6.86
70417;BMP280;57839;51.332;12.410;2024-01-30T02:40:28;101624.91;;;6.87
70417;BMP280;57839;51.332;12.410;2024-01-30T02:42:54;101623.91;;;6.83
70417;BMP280;57839;51.332;12.410;2024-01-30T02:45:19;101616.69;;;6.83
70417;BMP280;57839;51.332;12.410;2024-01-30T02:47:45;101616.22;;;6.81
70417;BMP280;57839;51.332;12.410;2024-01-30T02:50:11;101616.06;;;6.78
70417;BMP280;57839;51.332;12.410;2024-01-30T02:52:37;101613.69;;;6.76
70417;BMP280;57839;51.332;12.410;2024-01-30T02:55:03;101610.22;;;6.75
70417;BMP280;57839;51.332;12.410;2024-01-30T02:57:28;101604.38;;;6.73
70417;BMP280;57839;51.332;12.410;2024-01-30T02:59:54;101607.84;;;6.74
70417;BMP280;57839;51.332;12.410;2024-01-30T03:02:19;101605.97;;;6.74
70417;BMP280;57839;51.332;12.410;2024-01-30T03:04:46;101615.06;;;6.73
70417;BMP280;57839;51.332;12.410;2024-01-30T03:07:12;101612.09;;;6.75
70417;BMP280;57839;51.332;12.410;2024-01-30T03:09:37;101605.97;;;6.74
70417;BMP280;57839;51.332;12.410;2024-01-30T03:12:04;101611.78;;;6.76
70417;BMP280;57839;51.332;12.410;2024-01-30T03:14:31;101615.25;;;6.77
70417;BMP280;57839;51.332;12.410;2024-01-30T03:16:56;101605.69;;;6.76
70417;BMP280;57839;51.332;12.410;2024-01-30T03:19:21;101609.94;;;6.77
70417;BMP280;57839;51.332;12.410;2024-01-30T03:21:47;101612.09;;;6.75
70417;BMP280;57839;51.332;12.410;2024-01-30T03:24:13;101601.91;;;6.77
70417;BMP280;57839;51.332;12.410;2024-01-30T03:26:38;101603.50;;;6.78
70417;BMP280;57839;51.332;12.410;2024-01-30T03:29:04;101604.59;;;6.77
70417;BMP280;57839;51.332;12.410;2024-01-30T03:31:29;101605.09;;;6.79
70417;BMP280;57839;51.332;12.410;2024-01-30T03:33:55;101597.09;;;6.79
70417;BMP280;57839;51.332;12.410;2024-01-30T03:36:20;101606.19;;;6.78
70417;BMP280;57839;51.332;12.410;2024-01-30T03:38:46;101603.50;;;6.78
70417;BMP280;57839;51.332;12.410;2024-01-30T03:41:11;101603.50;;;6.78
70417;BMP280;57839;51.332;12.410;2024-01-30T03:43:37;101604.59;;;6.77
70417;BMP280;57839;51.332;12.410;2024-01-30T03:46:02;101608.06;;;6.78
70417;BMP280;57839;51.332;12.410;2024-01-30T03:48:29;101602.88;;;6.81
70417;BMP280;57839;51.332;12.410;2024-01-30T03:50:55;101598.63;;;6.80
70417;BMP280;57839;51.332;12.410;2024-01-30T03:53:21;101602.09;;;6.81
70417;BMP280;57839;51.332;12.410;2024-01-30T03:55:47;101589.53;;;6.81
70417;BMP280;57839;51.332;12.410;2024-01-30T03:58:12;101575.81;;;6.88
70417;BMP280;57839;51.332;12.410;2024-01-30T04:00:38;101601.97;;;6.86
70417;BMP280;57839;51.332;12.410;2024-01-30T04:03:04;101588.63;;;6.86
70417;BMP280;57839;51.332;12.410;2024-01-30T04:05:29;101589.44;;;6.86
70417;BMP280;57839;51.332;12.410;2024-01-30T04:07:55;101601.69;;;6.87
70417;BMP280;57839;51.332;12.410;2024-01-30T04:10:20;101591.81;;;6.88
70417;BMP280;57839;51.332;12.410;2024-01-30T04:12:46;101585.09;;;6.90
70417;BMP280;57839;51.332;12.410;2024-01-30T04:15:12;101590.06;;;6.92
70417;BMP280;57839;51.332;12.410;2024-01-30T04:17:39;101592.28;;;6.90
70417;BMP280;57839;51.332;12.410;2024-01-30T04:20:05;101594.97;;;6.90
70417;BMP280;57839;51.332;12.410;2024-01-30T04:22:31;101585.69;;;6.87
70417;BMP280;57839;51.332;12.410;2024-01-30T04:24:57;101597.44;;;6.86
70417;BMP280;57839;51.332;12.410;2024-01-30T04:27:22;101592.41;;;6.85
70417;BMP280;57839;51.332;12.410;2024-01-30T04:29:48;101595.38;;;6.83
70417;BMP280;57839;51.332;12.410;2024-01-30T04:32:14;101591.13;;;6.82
70417;BMP280;57839;51.332;12.410;2024-01-30T04:34:39;101582.63;;;6.80
70417;BMP280;57839;51.332;12.410;2024-01-30T04:37:05;101579.03;;;6.76
70417;BMP280;57839;51.332;12.410;2024-01-30T04:39:33;101594.22;;;6.75
70417;BMP280;57839;51.332;12.410;2024-01-30T04:41:58;101579.31;;;6.74
70417;BMP280;57839;51.332;12.410;2024-01-30T04:44:24;101588.09;;;6.75
70417;BMP280;57839;51.332;12.410;2024-01-30T04:46:50;101591.06;;;6.73
70417;BMP280;57839;51.332;12.410;2024-01-30T04:49:16;101579.63;;;6.73
70417;BMP280;57839;51.332;12.410;2024-01-30T04:51:41;101575.38;;;6.72
70417;BMP280;57839;51.332;12.410;2024-01-30T04:54:07;101576.44;;;6.71
70417;BMP280;57839;51.332;12.410;2024-01-30T04:56:33;101570.34;;;6.70
70417;BMP280;57839;51.332;12.410;2024-01-30T04:58:59;101575.69;;;6.70
70417;BMP280;57839;51.332;12.410;2024-01-30T05:01:25;101579.44;;;6.69
70417;BMP280;57839;51.332;12.410;2024-01-30T05:03:50;101578.47;;;6.65
70417;BMP280;57839;51.332;12.410;2024-01-30T05:06:28;101575.00;;;6.65
70417;BMP280;57839;51.332;12.410;2024-01-30T05:08:55;101577.66;;;6.65
70417;BMP280;57839;51.332;12.410;2024-01-30T05:11:21;101572.94;;;6.62
70417;BMP280;57839;51.332;12.410;2024-01-30T05:13:46;101575.91;;;6.60
70417;BMP280;57839;51.332;12.410;2024-01-30T05:16:13;101575.44;;;6.58
70417;BMP280;57839;51.332;12.410;2024-01-30T05:18:38;101577.88;;;6.55
70417;BMP280;57839;51.332;12.410;2024-01-30T05:21:05;101574.13;;;6.56
70417;BMP280;57839;51.332;12.410;2024-01-30T05:23:31;101578.84;;;6.59
70417;BMP280;57839;51.332;12.410;2024-01-30T05:25:56;101578.84;;;6.59
70417;BMP280;57839;51.332;12.410;2024-01-30T05:28:22;101587.97;;;6.58
70417;BMP280;57839;51.332;12.410;2024-01-30T05:30:48;101578.69;;;6.55
70417;BMP280;57839;51.332;12.410;2024-01-30T05:33:13;101587.75;;;6.54
70417;BMP280;57839;51.332;12.410;2024-01-30T05:35:39;101590.25;;;6.51
70417;BMP280;57839;51.332;12.410;2024-01-30T05:38:04;101579.91;;;6.49
70417;BMP280;57839;51.332;12.410;2024-01-30T05:40:30;101587.09;;;6.49
70417;BMP280;57839;51.332;12.410;2024-01-30T05:42:56;101586.78;;;6.50
70417;BMP280;57839;51.332;12.410;2024-01-30T05:45:26;101580.84;;;6.53
70417;BMP280;57839;51.332;12.410;2024-01-30T05:47:52;101584.31;;;6.54
70417;BMP280;57839;51.332;12.410;2024-01-30T05:50:18;101580.06;;;6.53
70417;BMP280;57839;51.332;12.410;2024-01-30T05:52:44;101584.31;;;6.54
70417;BMP280;57839;51.332;12.410;2024-01-30T05:55:10;101586.50;;;6.52
70417;BMP280;57839;51.332;12.410;2024-01-30T05:57:37;101581.78;;;6.49
70417;BMP280;57839;51.332;12.410;2024-01-30T06:00:06;101591.84;;;6.52
70417;BMP280;57839;51.332;12.410;2024-01-30T06:02:32;101584.31;;;6.54
70417;BMP280;57839;51.332;12.410;2024-01-30T06:04:58;101580.25;;;6.56
70417;BMP280;57839;51.332;12.410;2024-01-30T06:07:23;101582.91;;;6.56
70417;BMP280;57839;51.332;12.410;2024-01-30T06:09:49;101582.31;;;6.59
70417;BMP280;57839;51.332;12.410;2024-01-30T06:12:15;101585.78;;;6.60
70417;BMP280;57839;51.332;12.410;2024-01-30T06:14:40;101582.50;;;6.63
70417;BMP280;57839;51.332;12.410;2024-01-30T06:17:08;101592.38;;;6.62
70417;BMP280;57839;51.332;12.410;2024-01-30T06:19:33;101585.50;;;6.61
70417;BMP280;57839;51.332;12.410;2024-01-30T06:21:59;101579.06;;;6.62
70417;BMP280;57839;51.332;12.410;2024-01-30T06:24:24;101582.03;;;6.61
70417;BMP280;57839;51.332;12.410;2024-01-30T06:26:50;101581.84;;;6.57
70417;BMP280;57839;51.332;12.410;2024-01-30T06:29:15;101571.44;;;6.56
70417;BMP280;57839;51.332;12.410;2024-01-30T06:31:41;101584.66;;;6.52
70417;BMP280;57839;51.332;12.410;2024-01-30T06:34:08;101571.31;;;6.52
70417;BMP280;57839;51.332;12.410;2024-01-30T06:36:34;101570.97;;;6.54
70417;BMP280;57839;51.332;12.410;2024-01-30T06:38:59;101573.19;;;6.52
70417;BMP280;57839;51.332;12.410;2024-01-30T06:41:25;101575.50;;;6.53
70417;BMP280;57839;51.332;12.410;2024-01-30T06:43:51;101572.84;;;6.53
70417;BMP280;57839;51.332;12.410;2024-01-30T06:46:16;101583.84;;;6.52
70417;BMP280;57839;51.332;12.410;2024-01-30T06:48:42;101586.00;;;6.50
70417;BMP280;57839;51.332;12.410;2024-01-30T06:51:10;101578.81;;;6.50
70417;BMP280;57839;51.332;12.410;2024-01-30T06:53:37;101585.41;;;6.53
70417;BMP280;57839;51.332;12.410;2024-01-30T06:56:02;101581.63;;;6.54
70417;BMP280;57839;51.332;12.410;2024-01-30T06:58:28;101576.78;;;6.56
70417;BMP280;57839;51.332;12.410;2024-01-30T07:00:54;101584.31;;;6.54
70417;BMP280;57839;51.332;12.410;2024-01-30T07:03:20;101576.78;;;6.56
70417;BMP280;57839;51.332;12.410;2024-01-30T07:05:45;101578.38;;;6.57
70417;BMP280;57839;51.332;12.410;2024-01-30T07:08:11;101572.56;;;6.55
70417;BMP280;57839;51.332;12.410;2024-01-30T07:10:36;101586.56;;;6.60
70417;BMP280;57839;51.332;12.410;2024-01-30T07:13:02;101587.38;;;6.61
70417;BMP280;57839;51.332;12.410;2024-01-30T07:15:29;101579.22;;;6.66
70417;BMP280;57839;51.332;12.410;2024-01-30T07:17:55;101575.16;;;6.68
70417;BMP280;57839;51.332;12.410;2024-01-30T07:20:20;101579.91;;;6.71
70417;BMP280;57839;51.332;12.410;2024-01-30T07:22:46;101581.19;;;6.74
70417;BMP280;57839;51.332;12.410;2024-01-30T07:25:12;101578.44;;;6.79
70417;BMP280;57839;51.332;12.410;2024-01-30T07:27:38;101590.81;;;6.84
70417;BMP280;57839;51.332;12.410;2024-01-30T07:30:04;101574.22;;;6.87
70417;BMP280;57839;51.332;12.410;2024-01-30T07:32:30;101585.38;;;6.89
70417;BMP280;57839;51.332;12.410;2024-01-30T07:34:55;101581.63;;;6.90
70417;BMP280;57839;51.332;12.410;2024-01-30T07:37:21;101569.06;;;6.90
70417;BMP280;57839;51.332;12.410;2024-01-30T07:39:47;101583.38;;;6.94
70417;BMP280;57839;51.332;12.410;2024-01-30T07:42:12;101580.72;;;6.94
70417;BMP280;57839;51.332;12.410;2024-01-30T07:44:38;101577.13;;;6.99
70417;BMP280;57839;51.332;12.410;2024-01-30T07:47:05;101584.22;;;7.03
70417;BMP280;57839;51.332;12.410;2024-01-30T07:49:31;101575.91;;;7.05
70417;BMP280;57839;51.332;12.410;2024-01-30T07:51:57;101574.22;;;7.09
70417;BMP280;57839;51.332;12.410;2024-01-30T07:54:23;101580.50;;;7.13
70417;BMP280;57839;51.332;12.410;2024-01-30T07:56:49;101576.75;;;7.14
70417;BMP280;57839;51.332;12.410;2024-01-30T07:59:14;101581.34;;;7.22
70417;BMP280;57839;51.332;12.410;2024-01-30T08:01:41;101579.94;;;7.24
70417;BMP280;57839;51.332;12.410;2024-01-30T08:04:06;101574.75;;;7.28
70417;BMP280;57839;51.332;12.410;2024-01-30T08:06:32;101586.91;;;7.34
70417;BMP280;57839;51.332;12.410;2024-01-30T08:08:58;101579.38;;;7.36
70417;BMP280;57839;51.332;12.410;2024-01-30T08:11:24;101569.34;;;7.41
70417;BMP280;57839;51.332;12.410;2024-01-30T08:13:54;101567.03;;;7.49
70417;BMP280;57839;51.332;12.410;2024-01-30T08:16:20;101569.84;;;7.52
70417;BMP280;57839;51.332;12.410;2024-01-30T08:18:45;101562.50;;;7.58
70417;BMP280;57839;51.332;12.410;2024-01-30T08:21:11;101569.56;;;7.62
70417;BMP280;57839;51.332;12.410;2024-01-30T08:23:41;101575.59;;;7.68
70417;BMP280;57839;51.332;12.410;2024-01-30T08:26:08;101564.75;;;7.73
70417;BMP280;57839;51.332;12.410;2024-01-30T08:28:33;101570.53;;;7.75
70417;BMP280;57839;51.332;12.410;2024-01-30T08:30:59;101580.50;;;7.83
70417;BMP280;57839;51.332;12.410;2024-01-30T08:33:24;101571.06;;;7.85
70417;BMP280;57839;51.332;12.410;2024-01-30T08:35:50;101572.81;;;7.90
70417;BMP280;57839;51.332;12.410;2024-01-30T08:38:15;101568.56;;;7.97
70417;BMP280;57839;51.332;12.410;2024-01-30T08:40:41;101581.47;;;8.04
70417;BMP280;57839;51.332;12.410;2024-01-30T08:43:07;101577.06;;;8.08
70417;BMP280;57839;51.332;12.410;2024-01-30T08:45:33;101570.66;;;8.18
70417;BMP280;57839;51.332;12.410;2024-01-30T08:47:59;101567.22;;;8.26
70417;BMP280;57839;51.332;12.410;2024-01-30T08:50:24;101574.44;;;8.34
70417;BMP280;57839;51.332;12.410;2024-01-30T08:52:50;101562.47;;;8.40
70417;BMP280;57839;51.332;12.410;2024-01-30T08:55:16;101560.91;;;8.47
70417;BMP280;57839;51.332;12.410;2024-01-30T08:57:41;101562.78;;;8.47
70417;BMP280;57839;51.332;12.410;2024-01-30T09:00:07;101574.59;;;8.54
70417;BMP280;57839;51.332;12.410;2024-01-30T09:02:34;101557.44;;;8.64
70417;BMP280;57839;51.332;12.410;2024-01-30T09:05:00;101564.66;;;8.72
70417;BMP280;57839;51.332;12.410;2024-01-30T09:07:25;101567.50;;;8.75
70417;BMP280;57839;51.332;12.410;2024-01-30T09:09:51;101561.81;;;8.85
70417;BMP280;57839;51.332;12.410;2024-01-30T09:12:17;101559.09;;;8.94
70417;BMP280;57839;51.332;12.410;2024-01-30T09:14:42;101566.03;;;9.04
70417;BMP280;57839;51.332;12.410;2024-01-30T09:17:08;101561.72;;;9.11
70417;BMP280;57839;51.332;12.410;2024-01-30T09:19:34;101568.78;;;9.16
70417;BMP280;57839;51.332;12.410;2024-01-30T09:21:59;101563.28;;;9.21
70417;BMP280;57839;51.332;12.410;2024-01-30T09:24:26;101565.28;;;9.24
70417;BMP280;57839;51.332;12.410;2024-01-30T09:26:52;101562.31;;;9.25
70417;BMP280;57839;51.332;12.410;2024-01-30T09:29:17;101564.34;;;9.28
70417;BMP280;57839;51.332;12.410;2024-01-30T09:31:46;101559.88;;;9.41
70417;BMP280;57839;51.332;12.410;2024-01-30T09:34:12;101548.03;;;9.50
70417;BMP280;57839;51.332;12.410;2024-01-30T09:36:38;101556.78;;;9.59
70417;BMP280;57839;51.332;12.410;2024-01-30T09:39:04;101565.13;;;9.67
70417;BMP280;57839;51.332;12.410;2024-01-30T09:41:32;101559.69;;;9.75
70417;BMP280;57839;51.332;12.410;2024-01-30T09:43:59;101560.16;;;9.77
70417;BMP280;57839;51.332;12.410;2024-01-30T09:46:27;101556.47;;;9.82
70417;BMP280;57839;51.332;12.410;2024-01-30T09:48:53;101568.91;;;9.86
70417;BMP280;57839;51.332;12.410;2024-01-30T09:51:20;101572.31;;;9.95
70417;BMP280;57839;51.332;12.410;2024-01-30T09:53:46;101549.59;;;10.01
70417;BMP280;57839;51.332;12.410;2024-01-30T09:56:12;101569.25;;;10.05
70417;BMP280;57839;51.332;12.410;2024-01-30T09:58:38;101563.22;;;10.08
70417;BMP280;57839;51.332;12.410;2024-01-30T10:01:05;101561.47;;;10.12
70417;BMP280;57839;51.332;12.410;2024-01-30T10:03:31;101554.34;;;10.16
70417;BMP280;57839;51.332;12.410;2024-01-30T10:05:56;101556.25;;;10.16
70417;BMP280;57839;51.332;12.410;2024-01-30T10:08:22;101556.16;;;10.24
70417;BMP280;57839;51.332;12.410;2024-01-30T10:10:49;101549.47;;;10.30
70417;BMP280;57839;51.332;12.410;2024-01-30T10:13:18;101552.75;;;10.36
70417;BMP280;57839;51.332;12.410;2024-01-30T10:15:44;101558.25;;;10.40
70417;BMP280;57839;51.332;12.410;2024-01-30T10:18:10;101542.72;;;10.45
70417;BMP280;57839;51.332;12.410;2024-01-30T10:20:37;101549.66;;;10.46
70417;BMP280;57839;51.332;12.410;2024-01-30T10:23:03;101552.78;;;10.48
70417;BMP280;57839;51.332;12.410;2024-01-30T10:25:30;101540.72;;;10.54
70417;BMP280;57839;51.332;12.410;2024-01-30T10:27:56;101542.13;;;10.60
70417;BMP280;57839;51.332;12.410;2024-01-30T10:30:22;101541.44;;;10.63
70417;BMP280;57839;51.332;12.410;2024-01-30T10:32:48;101541.56;;;10.67
70417;BMP280;57839;51.332;12.410;2024-01-30T10:35:14;101552.06;;;10.72
70417;BMP280;57839;51.332;12.410;2024-01-30T10:37:43;101538.44;;;10.77
70417;BMP280;57839;51.332;12.410;2024-01-30T10:40:12;101542.94;;;10.85
70417;BMP280;57839;51.332;12.410;2024-01-30T10:42:43;101535.34;;;10.87
70417;BMP280;57839;51.332;12.410;2024-01-30T10:45:11;101524.59;;;10.87
70417;BMP280;57839;51.332;12.410;2024-01-30T10:47:52;101518.22;;;10.91
70417;BMP280;57839;51.332;12.410;2024-01-30T10:50:18;101511.97;;;10.99
70417;BMP280;57839;51.332;12.410;2024-01-30T10:52:44;101521.69;;;11.04
70417;BMP280;57839;51.332;12.410;2024-01-30T10:55:10;101521.81;;;11.07
70417;BMP280;57839;51.332;12.410;2024-01-30T10:57:36;101516.13;;;11.09
70417;BMP280;57839;51.332;12.410;2024-01-30T11:00:04;101513.09;;;11.23
70417;BMP280;57839;51.332;12.410;2024-01-30T11:02:31;101516.56;;;11.35
70417;BMP280;57839;51.332;12.410;2024-01-30T11:04:58;101521.28;;;11.38
70417;BMP280;57839;51.332;12.410;2024-01-30T11:07:29;101515.94;;;11.54
70417;BMP280;57839;51.332;12.410;2024-01-30T11:12:27;101505.06;;;11.62
70417;BMP280;57839;51.332;12.410;2024-01-30T11:15:14;101508.31;;;11.68
70417;BMP280;57839;51.332;12.410;2024-01-30T11:20:10;101504.28;;;11.74
70417;BMP280;57839;51.332;12.410;2024-01-30T11:22:35;101496.28;;;11.77
70417;BMP280;57839;51.332;12.410;2024-01-30T11:25:01;101499.44;;;11.79
70417;BMP280;57839;51.332;12.410;2024-01-30T11:27:30;101506.13;;;11.85
70417;BMP280;57839;51.332;12.410;2024-01-30T11:30:01;101498.06;;;11.85
70417;BMP280;57839;51.332;12.410;2024-01-30T11:32:27;101503.31;;;11.94
70417;BMP280;57839;51.332;12.410;2024-01-30T11:34:54;101496.44;;;11.97
70417;BMP280;57839;51.332;12.410;2024-01-30T11:37:21;101495.41;;;12.01
70417;BMP280;57839;51.332;12.410;2024-01-30T11:39:50;101488.47;;;12.00
70417;BMP280;57839;51.332;12.410;2024-01-30T11:42:16;101488.22;;;12.05
70417;BMP280;57839;51.332;12.410;2024-01-30T11:44:47;101494.03;;;12.07
70417;BMP280;57839;51.332;12.410;2024-01-30T11:47:13;101497.50;;;12.08
70417;BMP280;57839;51.332;12.410;2024-01-30T11:49:38;101487.44;;;12.05
70417;BMP280;57839;51.332;12.410;2024-01-30T11:52:04;101484.16;;;12.11
70417;BMP280;57839;51.332;12.410;2024-01-30T11:54:30;101479.59;;;12.27
70417;BMP280;57839;51.332;12.410;2024-01-30T11:56:56;101482.75;;;12.45
70417;BMP280;57839;51.332;12.410;2024-01-30T11:59:21;101476.13;;;12.73
70417;BMP280;57839;51.332;12.410;2024-01-30T12:01:47;101473.22;;;13.13
70417;BMP280;57839;51.332;12.410;2024-01-30T12:04:13;101474.81;;;13.33
70417;BMP280;57839;51.332;12.410;2024-01-30T12:06:38;101472.09;;;13.52
70417;BMP280;57839;51.332;12.410;2024-01-30T12:09:04;101468.00;;;13.78
70417;BMP280;57839;51.332;12.410;2024-01-30T12:11:30;101458.59;;;13.91
70417;BMP280;57839;51.332;12.410;2024-01-30T12:13:56;101464.84;;;13.95
70417;BMP280;57839;51.332;12.410;2024-01-30T12:16:22;101462.84;;;14.11
70417;BMP280;57839;51.332;12.410;2024-01-30T12:18:48;101463.47;;;14.27
70417;BMP280;57839;51.332;12.410;2024-01-30T12:21:16;101484.34;;;14.30
70417;BMP280;57839;51.332;12.410;2024-01-30T12:23:43;101469.72;;;14.31
70417;BMP280;57839;51.332;12.410;2024-01-30T12:26:09;101461.72;;;14.38
70417;BMP280;57839;51.332;12.410;2024-01-30T12:28:35;101464.59;;;14.48
70417;BMP280;57839;51.332;12.410;2024-01-30T12:31:02;101461.91;;;14.48
70417;BMP280;57839;51.332;12.410;2024-01-30T12:33:29;101453.63;;;14.38
70417;BMP280;57839;51.332;12.410;2024-01-30T12:35:54;101453.75;;;14.45
70417;BMP280;57839;51.332;12.410;2024-01-30T12:38:21;101446.44;;;14.45
70417;BMP280;57839;51.332;12.410;2024-01-30T12:40:46;101442.94;;;14.45
70417;BMP280;57839;51.332;12.410;2024-01-30T12:43:13;101432.16;;;14.45
70417;BMP280;57839;51.332;12.410;2024-01-30T12:45:39;101430.56;;;14.44
70417;BMP280;57839;51.332;12.410;2024-01-30T12:48:05;101425.75;;;14.57
70417;BMP280;57839;51.332;12.410;2024-01-30T12:50:30;101426.69;;;14.68
70417;BMP280;57839;51.332;12.410;2024-01-30T12:52:56;101433.28;;;14.70
70417;BMP280;57839;51.332;12.410;2024-01-30T12:55:24;101433.00;;;14.75
70417;BMP280;57839;51.332;12.410;2024-01-30T12:57:50;101434.25;;;14.81
70417;BMP280;57839;51.332;12.410;2024-01-30T13:00:16;101440.38;;;14.78
70417;BMP280;57839;51.332;12.410;2024-01-30T13:02:42;101434.53;;;14.76
70417;BMP280;57839;51.332;12.410;2024-01-30T13:05:10;101439.19;;;14.76
70417;BMP280;57839;51.332;12.410;2024-01-30T13:07:36;101454.53;;;14.72
70417;BMP280;57839;51.332;12.410;2024-01-30T13:10:02;101437.06;;;14.66
70417;BMP280;57839;51.332;12.410;2024-01-30T13:12:29;101426.22;;;14.62
70417;BMP280;57839;51.332;12.410;2024-01-30T13:14:55;101438.94;;;14.62
70417;BMP280;57839;51.332;12.410;2024-01-30T13:17:21;101436.25;;;14.62
70417;BMP280;57839;51.332;12.410;2024-01-30T13:19:47;101432.41;;;14.63
70417;BMP280;57839;51.332;12.410;2024-01-30T13:22:15;101438.19;;;14.61
70417;BMP280;57839;51.332;12.410;2024-01-30T13:24:41;101432.28;;;14.56
70417;BMP280;57839;51.332;12.410;2024-01-30T13:27:07;101421.97;;;14.61
70417;BMP280;57839;51.332;12.410;2024-01-30T13:29:34;101427.06;;;14.66
70417;BMP280;57839;51.332;12.410;2024-01-30T13:32:00;101416.22;;;14.63
70417;BMP280;57839;51.332;12.410;2024-01-30T13:34:25;101435.06;;;14.59
70417;BMP280;57839;51.332;12.410;2024-01-30T13:36:51;101426.09;;;14.52
70417;BMP280;57839;51.332;12.410;2024-01-30T13:39:17;101419.44;;;14.45
70417;BMP280;57839;51.332;12.410;2024-01-30T13:41:42;101407.78;;;14.41
70417;BMP280;57839;51.332;12.410;2024-01-30T13:44:08;101406.19;;;14.37
70417;BMP280;57839;51.332;12.410;2024-01-30T13:46:35;101405.03;;;14.38
70417;BMP280;57839;51.332;12.410;2024-01-30T13:49:01;101407.25;;;14.32
70417;BMP280;57839;51.332;12.410;2024-01-30T13:51:27;101396.81;;;14.31
70417;BMP280;57839;51.332;12.410;2024-01-30T13:53:53;101413.69;;;14.24